Time;durP1;ratioP1;P1;durP2;ratioP2;P2;SDS_P1;SDS_P2;PMS_P1;PMS_P2;Temp;Humidity;BMP_temperature;BMP_pressure;BME280_temperature;BME280_humidity;BME280_pressure;Samples;Min_cycle;Max_cycle;Signal;HPM_P1;HPM_P2
2022/04/10 00:00:30;;;;;;;19.02;12.02;;;;;;;7.32;94.47;99789.91;5099231;28;20498;-76
2022/04/10 00:02:56;;;;;;;14.63;10.25;;;;;;;7.30;93.79;99779.34;5096782;28;20043;-76
2022/04/10 00:05:21;;;;;;;15.85;12.15;;;;;;;7.27;93.53;99784.94;5096632;28;20024;-76
2022/04/10 00:07:47;;;;;;;14.75;11.13;;;;;;;7.19;92.71;99773.22;5096777;28;20028;-76
2022/04/10 00:10:12;;;;;;;17.05;11.30;;;;;;;7.24;92.33;99785.19;5083503;28;20678;-76
2022/04/10 00:12:38;;;;;;;15.85;11.65;;;;;;;7.15;92.21;99777.13;5105659;28;20039;-76
2022/04/10 00:15:04;;;;;;;15.48;11.00;;;;;;;7.17;91.96;99785.81;5085168;28;20024;-76
2022/04/10 00:17:29;;;;;;;16.05;12.13;;;;;;;7.20;92.03;99797.09;5089693;28;20022;-77
2022/04/10 00:19:55;;;;;;;17.00;11.85;;;;;;;7.07;91.77;99781.25;5101876;28;20020;-76
2022/04/10 00:22:20;;;;;;;16.00;11.75;;;;;;;7.11;91.75;99791.66;5084866;28;20104;-76
2022/04/10 00:24:46;;;;;;;16.85;11.90;;;;;;;7.17;91.17;99796.50;5100146;28;20043;-76
2022/04/10 00:27:14;;;;;;;15.02;10.63;;;;;;;7.08;91.86;99787.44;5086931;28;20039;-76
2022/04/10 00:29:41;;;;;;;13.95;10.15;;;;;;;7.04;91.71;99800.16;5087629;28;20027;-76
2022/04/10 00:32:07;;;;;;;17.38;12.13;;;;;;;7.11;91.90;99797.00;5087721;28;20027;-76
2022/04/10 00:34:33;;;;;;;16.60;12.18;;;;;;;7.03;91.38;99802.13;5101929;28;20035;-76
2022/04/10 00:36:58;;;;;;;15.93;12.25;;;;;;;7.07;91.67;99806.22;5102157;28;20028;-76
2022/04/10 00:39:24;;;;;;;17.02;12.13;;;;;;;7.12;90.20;99814.69;5096056;28;20048;-72
2022/04/10 00:41:50;;;;;;;17.73;12.45;;;;;;;6.93;91.04;99804.66;5100716;28;20039;-76
2022/04/10 00:44:16;;;;;;;18.52;11.80;;;;;;;6.87;91.00;99799.84;5101688;28;20028;-72
2022/04/10 00:46:42;;;;;;;17.98;11.95;;;;;;;6.97;90.76;99812.28;5091073;28;20031;-72
2022/04/10 00:49:08;;;;;;;17.48;12.68;;;;;;;6.88;89.78;99804.22;5087446;28;20475;-72
2022/04/10 00:51:52;;;;;;;19.13;12.35;;;;;;;7.00;89.42;99812.03;5088448;28;20134;-72
2022/04/10 00:54:24;;;;;;;14.50;11.18;;;;;;;6.90;89.10;99821.75;5099382;28;20026;-72
2022/04/10 00:56:50;;;;;;;16.90;12.05;;;;;;;6.82;89.74;99826.88;5084341;28;20085;-72
2022/04/10 00:59:16;;;;;;;18.52;13.10;;;;;;;6.78;90.76;99821.91;5082256;28;20023;-72
2022/04/10 01:01:44;;;;;;;19.50;12.98;;;;;;;6.73;90.54;99829.41;5088966;28;20454;-72
2022/04/10 01:04:12;;;;;;;19.88;12.98;;;;;;;6.69;90.96;99826.16;5083130;28;20028;-72
2022/04/10 01:06:38;;;;;;;20.90;13.32;;;;;;;6.80;89.61;99828.81;5099587;28;20050;-76
2022/04/10 01:09:04;;;;;;;18.92;13.02;;;;;;;6.81;88.98;99829.66;5099616;28;20020;-76
2022/04/10 01:11:30;;;;;;;19.88;12.73;;;;;;;6.70;89.30;99824.31;5098991;28;20043;-72
2022/04/10 01:13:56;;;;;;;18.02;12.18;;;;;;;6.72;89.15;99822.41;5087019;28;20032;-72
2022/04/10 01:16:23;;;;;;;19.98;13.18;;;;;;;6.66;88.90;99814.88;5088947;28;20742;-71
2022/04/10 01:18:50;;;;;;;18.25;12.77;;;;;;;6.64;88.91;99814.16;5080428;28;20123;-72
2022/04/10 01:21:23;;;;;;;19.70;13.30;;;;;;;6.63;89.20;99816.00;5084188;28;20066;-72
2022/04/10 01:23:50;;;;;;;18.77;12.68;;;;;;;6.64;89.35;99825.66;5098148;28;20040;-72
2022/04/10 01:26:15;;;;;;;17.98;11.75;;;;;;;6.67;88.92;99830.75;5098059;28;20023;-73
2022/04/10 01:29:02;;;;;;;19.48;11.98;;;;;;;6.66;88.64;99836.19;5095789;28;20035;-72
2022/04/10 01:31:29;;;;;;;16.08;12.05;;;;;;;6.59;87.52;99816.34;5098599;28;20028;-72
2022/04/10 01:33:58;;;;;;;13.60;9.95;;;;;;;6.56;86.96;99811.25;5098007;28;20077;-72
2022/04/10 01:36:27;;;;;;;16.90;10.77;;;;;;;6.53;87.15;99811.50;5098284;28;20066;-72
2022/04/10 01:38:55;;;;;;;19.13;10.15;;;;;;;6.61;87.56;99823.25;5083494;28;20123;-72
2022/04/10 01:41:25;;;;;;;15.25;9.98;;;;;;;6.65;86.87;99831.84;5097527;28;20024;-76
2022/04/10 01:43:52;;;;;;;14.85;10.07;;;;;;;6.63;86.39;99836.44;5080739;28;20019;-72
2022/04/10 01:46:18;;;;;;;13.13;9.32;;;;;;;6.63;85.75;99845.28;5097816;28;20059;-72
2022/04/10 01:48:44;;;;;;;17.35;9.75;;;;;;;6.61;83.37;99836.56;5096968;28;20031;-71
2022/04/10 01:51:11;;;;;;;17.58;9.63;;;;;;;6.56;83.66;99841.44;5094889;28;20384;-72
2022/04/10 01:53:36;;;;;;;15.85;8.98;;;;;;;6.55;83.98;99846.88;5097880;28;20039;-72
2022/04/10 01:56:07;;;;;;;10.07;8.35;;;;;;;6.54;84.29;99859.34;5084650;28;20030;-71
2022/04/10 01:58:35;;;;;;;13.32;8.60;;;;;;;6.50;84.88;99860.56;5089574;28;20379;-72
2022/04/10 02:01:05;;;;;;;12.63;8.98;;;;;;;6.47;84.55;99855.47;5084725;28;20031;-72
2022/04/10 02:03:31;;;;;;;15.43;9.30;;;;;;;6.49;84.34;99866.00;5099837;28;20407;-72
2022/04/10 02:05:57;;;;;;;12.23;9.15;;;;;;;6.56;84.18;99875.19;5080666;28;20028;-72
2022/04/10 02:08:23;;;;;;;10.20;7.97;;;;;;;6.59;84.46;99877.63;5083537;28;20051;-76
2022/04/10 02:10:49;;;;;;;9.82;7.90;;;;;;;6.60;84.06;99877.50;5100699;28;20028;-76
2022/04/10 02:13:14;;;;;;;12.93;8.68;;;;;;;6.58;84.03;99868.78;5098048;28;20170;-76
2022/04/10 02:15:40;;;;;;;13.65;8.10;;;;;;;6.65;83.46;99880.63;5086621;28;20032;-72
2022/04/10 02:18:06;;;;;;;12.52;8.40;;;;;;;6.65;83.23;99863.81;5096981;28;20020;-71
2022/04/10 02:20:32;;;;;;;13.45;8.82;;;;;;;6.72;82.55;99871.22;5097055;28;20054;-71
2022/04/10 02:22:58;;;;;;;11.75;8.43;;;;;;;6.79;81.87;99882.22;5091342;28;20504;-72
2022/04/10 02:25:23;;;;;;;11.75;7.80;;;;;;;6.69;81.35;99866.13;5094228;28;20034;-72
2022/04/10 02:27:49;;;;;;;11.40;7.68;;;;;;;6.81;81.54;99886.47;5098243;28;20130;-72
2022/04/10 02:30:14;;;;;;;10.50;7.55;;;;;;;6.83;80.67;99886.34;5082767;28;20028;-72
2022/04/10 02:32:40;;;;;;;10.05;7.50;;;;;;;6.78;81.03;99878.69;5098426;28;20043;-72
2022/04/10 02:35:07;;;;;;;14.10;8.15;;;;;;;6.78;80.67;99877.88;5096525;28;20028;-72
2022/04/10 02:37:33;;;;;;;11.13;7.53;;;;;;;6.81;80.47;99878.47;5094905;28;20395;-72
2022/04/10 02:39:58;;;;;;;12.85;7.50;;;;;;;6.82;80.34;99877.50;5095117;28;20044;-71
2022/04/10 02:42:24;;;;;;;10.43;7.47;;;;;;;6.83;80.38;99891.66;5099847;28;20027;-72
2022/04/10 02:44:50;;;;;;;11.52;7.80;;;;;;;6.83;80.10;99899.66;5099782;28;20016;-71
2022/04/10 02:47:15;;;;;;;10.38;7.50;;;;;;;6.82;79.59;99900.63;5097903;28;20031;-72
2022/04/10 02:49:42;;;;;;;13.05;8.40;;;;;;;6.78;79.41;99894.69;5096402;28;20333;-72
2022/04/10 02:52:07;;;;;;;11.63;8.13;;;;;;;6.60;80.25;99876.66;5100615;28;20539;-71
2022/04/10 02:54:33;;;;;;;10.60;7.57;;;;;;;6.67;80.50;99883.19;5098217;28;20112;-71
2022/04/10 02:56:58;;;;;;;11.60;8.88;;;;;;;6.66;81.16;99887.69;5079539;28;20016;-72
2022/04/10 02:59:24;;;;;;;13.43;8.65;;;;;;;6.71;81.36;99893.47;5077376;28;20085;-72
2022/04/10 03:01:50;;;;;;;9.07;7.18;;;;;;;6.74;80.86;99905.75;5097945;28;20044;-72
2022/04/10 03:04:18;;;;;;;10.68;7.72;;;;;;;6.69;80.75;99903.44;5099008;28;20019;-72
2022/04/10 03:06:44;;;;;;;11.50;7.82;;;;;;;6.63;80.56;99893.25;5083312;28;20080;-72
2022/04/10 03:09:09;;;;;;;15.68;8.27;;;;;;;6.57;80.38;99888.41;5096238;28;20027;-71
2022/04/10 03:11:35;;;;;;;10.80;7.60;;;;;;;6.63;80.05;99909.25;5097551;28;20027;-72
2022/04/10 03:14:00;;;;;;;10.70;7.35;;;;;;;6.63;79.82;99909.25;5095071;28;20019;-72
2022/04/10 03:16:26;;;;;;;9.93;5.93;;;;;;;6.65;79.39;99914.44;5094576;28;20057;-72
2022/04/10 03:18:52;;;;;;;11.32;6.60;;;;;;;6.66;79.14;99908.16;5097391;28;20053;-72
2022/04/10 03:21:20;;;;;;;10.38;5.95;;;;;;;6.69;78.93;99903.44;5082804;28;20020;-72
2022/04/10 03:23:46;;;;;;;9.38;5.57;;;;;;;6.66;78.22;99906.34;5096487;28;20060;-76
2022/04/10 03:26:11;;;;;;;7.28;5.35;;;;;;;6.64;77.61;99897.59;5096904;28;20031;-76
2022/04/10 03:28:37;;;;;;;9.13;5.93;;;;;;;6.72;76.59;99913.00;5087334;28;20032;-76
2022/04/10 03:31:02;;;;;;;7.45;5.28;;;;;;;6.71;76.85;99912.13;5094145;28;20032;-76
2022/04/10 03:33:28;;;;;;;8.75;5.00;;;;;;;6.69;76.72;99905.25;5085804;28;20024;-76
2022/04/10 03:35:54;;;;;;;8.23;5.45;;;;;;;6.79;76.04;99920.41;5074795;28;20055;-75
2022/04/10 03:38:20;;;;;;;8.30;5.25;;;;;;;6.81;76.19;99920.28;5093359;28;20024;-76
2022/04/10 03:40:45;;;;;;;7.03;5.45;;;;;;;6.76;76.31;99909.13;5097138;28;20055;-76
2022/04/10 03:43:14;;;;;;;7.20;4.68;;;;;;;6.81;76.04;99923.75;5088915;28;20032;-76
2022/04/10 03:45:39;;;;;;;8.02;4.72;;;;;;;6.70;75.33;99897.13;5098073;28;20420;-76
2022/04/10 03:48:06;;;;;;;7.05;5.28;;;;;;;6.76;75.48;99917.09;5101474;28;20043;-77
2022/04/10 03:50:33;;;;;;;8.38;5.25;;;;;;;6.76;75.25;99917.97;5101472;28;20034;-76
2022/04/10 03:53:03;;;;;;;9.23;4.65;;;;;;;6.73;76.08;99918.22;5102675;28;20421;-76
2022/04/10 03:55:29;;;;;;;5.60;4.57;;;;;;;6.83;75.54;99945.84;5101758;28;20114;-76
2022/04/10 03:57:54;;;;;;;5.22;4.50;;;;;;;6.82;74.83;99938.81;5103535;28;20133;-76
2022/04/10 04:00:20;;;;;;;5.30;4.25;;;;;;;6.75;74.95;99931.41;5097458;28;20038;-76
2022/04/10 04:02:46;;;;;;;7.53;4.75;;;;;;;6.65;75.02;99927.78;5094328;28;20126;-72
2022/04/10 04:05:11;;;;;;;6.22;4.40;;;;;;;6.67;75.32;99926.69;5098408;28;20103;-72
2022/04/10 04:07:38;;;;;;;5.28;3.55;;;;;;;6.65;75.41;99933.94;5090311;28;20073;-72
2022/04/10 04:10:05;;;;;;;5.90;5.00;;;;;;;6.59;75.79;99923.78;5091122;28;20028;-72
2022/04/10 04:12:31;;;;;;;6.63;4.47;;;;;;;6.66;75.67;99932.97;5098575;28;20028;-72
2022/04/10 04:14:56;;;;;;;6.60;4.45;;;;;;;6.63;75.25;99930.56;5103456;28;20388;-72
2022/04/10 04:17:22;;;;;;;9.77;5.28;;;;;;;6.58;75.97;99930.03;5101029;28;20161;-72
2022/04/10 04:19:50;;;;;;;8.50;5.22;;;;;;;6.52;75.19;99919.03;5103060;28;20031;-71
2022/04/10 04:22:18;;;;;;;6.25;4.75;;;;;;;6.42;76.29;99915.41;5102256;28;20036;-69
2022/04/10 04:24:44;;;;;;;6.70;4.93;;;;;;;6.49;76.13;99932.59;5088456;28;20111;-71
2022/04/10 04:27:12;;;;;;;5.75;4.32;;;;;;;6.49;76.81;99946.75;5102891;28;20213;-72
2022/04/10 04:29:38;;;;;;;6.03;4.68;;;;;;;6.53;76.69;99952.69;5088425;28;20024;-71
2022/04/10 04:32:05;;;;;;;11.23;4.70;;;;;;;6.41;77.00;99954.47;5101185;28;20035;-70
2022/04/10 04:34:36;;;;;;;7.70;4.50;;;;;;;6.48;76.97;99963.69;5093861;28;20555;-71
2022/04/10 04:37:01;;;;;;;8.75;5.15;;;;;;;6.36;76.81;99959.28;5094447;28;20036;-72
2022/04/10 04:39:27;;;;;;;9.20;5.32;;;;;;;6.43;77.24;99973.88;5098383;28;20047;-71
2022/04/10 04:41:52;;;;;;;7.22;4.70;;;;;;;6.41;76.81;99977.59;5096853;28;20086;-71
2022/04/10 04:44:17;;;;;;;6.30;4.35;;;;;;;6.31;77.46;99966.81;5100922;28;20112;-72
2022/04/10 04:46:43;;;;;;;5.30;4.40;;;;;;;6.39;77.23;99988.38;5100347;28;20024;-72
2022/04/10 04:49:08;;;;;;;8.65;4.80;;;;;;;6.33;77.10;99980.88;5103206;28;20114;-72
2022/04/10 04:51:36;;;;;;;8.30;4.53;;;;;;;6.36;76.31;99993.09;5099643;28;20507;-71
2022/04/10 04:54:04;;;;;;;8.10;4.30;;;;;;;6.26;76.95;99987.59;5089536;28;20474;-71
2022/04/10 04:56:31;;;;;;;8.00;5.75;;;;;;;6.32;76.79;100003.13;5089298;28;20040;-72
2022/04/10 04:58:56;;;;;;;10.63;7.07;;;;;;;6.27;77.26;99997.31;5097770;28;20503;-72
2022/04/10 05:01:22;;;;;;;7.70;5.03;;;;;;;6.22;76.75;99988.78;5090874;28;20039;-71
2022/04/10 05:03:49;;;;;;;6.55;3.97;;;;;;;6.28;76.58;99998.13;5098610;28;20026;-72
2022/04/10 05:06:15;;;;;;;6.38;4.10;;;;;;;6.32;76.05;100013.75;5094965;28;20028;-72
2022/04/10 05:08:41;;;;;;;5.60;3.72;;;;;;;6.38;74.97;100010.66;5098194;28;20042;-71
2022/04/10 05:11:11;;;;;;;4.78;3.40;;;;;;;6.42;75.81;100013.94;5087951;28;20023;-72
2022/04/10 05:13:37;;;;;;;3.72;3.20;;;;;;;6.44;75.50;100012.00;5100916;28;20106;-72
2022/04/10 05:16:02;;;;;;;4.00;3.05;;;;;;;6.54;75.03;100020.97;5094888;28;20027;-72
2022/04/10 05:18:28;;;;;;;5.53;3.05;;;;;;;6.59;74.81;100025.00;5098536;28;20030;-71
2022/04/10 05:20:53;;;;;;;4.57;2.95;;;;;;;6.63;74.15;100026.47;5098334;28;20407;-71
2022/04/10 05:23:20;;;;;;;5.18;3.55;;;;;;;6.70;73.65;100033.03;5101782;28;20035;-72
2022/04/10 05:25:47;;;;;;;4.60;3.15;;;;;;;6.76;73.24;100035.22;5088934;28;20027;-72
2022/04/10 05:28:13;;;;;;;4.60;3.00;;;;;;;6.91;72.07;100042.03;5085266;28;20372;-76
2022/04/10 05:30:38;;;;;;;8.73;3.80;;;;;;;6.99;70.98;100046.75;5099670;28;20020;-76
2022/04/10 05:33:04;;;;;;;4.93;3.30;;;;;;;6.98;71.14;100037.09;5084129;28;20055;-76
2022/04/10 05:35:29;;;;;;;4.40;3.35;;;;;;;7.21;69.62;100043.28;5075511;28;20061;-76
2022/04/10 05:37:55;;;;;;;8.13;4.00;;;;;;;7.12;69.72;100034.19;5097206;28;20027;-76
2022/04/10 05:40:22;;;;;;;6.55;3.70;;;;;;;7.26;69.23;100047.31;5101289;28;20105;-76
2022/04/10 05:42:48;;;;;;;5.32;3.90;;;;;;;7.34;69.49;100050.19;5098472;28;20031;-76
2022/04/10 05:45:14;;;;;;;6.57;3.55;;;;;;;7.41;68.90;100063.91;5097250;28;20035;-76
2022/04/10 05:47:41;;;;;;;5.22;3.38;;;;;;;7.50;69.08;100065.84;5096455;28;20047;-76
2022/04/10 05:50:08;;;;;;;7.95;3.33;;;;;;;7.56;69.22;100054.69;5083218;28;20035;-76
2022/04/10 05:52:45;;;;;;;4.28;3.38;;;;;;;7.60;69.20;100040.13;5078138;28;20031;-76
2022/04/10 05:55:12;;;;;;;4.75;2.85;;;;;;;7.89;68.18;100060.84;5082903;28;20399;-76
2022/04/10 05:57:38;;;;;;;4.65;3.33;;;;;;;7.95;67.88;100062.16;5095245;28;20032;-76
2022/04/10 06:00:07;;;;;;;4.55;3.28;;;;;;;8.14;67.16;100073.03;5096337;28;20046;-77
2022/04/10 06:02:33;;;;;;;6.07;3.72;;;;;;;8.37;65.57;100066.69;5085856;28;20042;-76
2022/04/10 06:04:58;;;;;;;6.18;3.47;;;;;;;8.39;65.93;100059.41;5084837;28;20115;-76
2022/04/10 06:07:24;;;;;;;4.00;2.75;;;;;;;8.56;65.18;100064.19;5099516;28;20027;-76
2022/04/10 06:09:49;;;;;;;5.30;3.00;;;;;;;8.75;64.67;100070.53;5095294;28;20028;-76
2022/04/10 06:12:15;;;;;;;3.55;2.42;;;;;;;8.90;63.52;100087.13;5096548;28;20046;-77
2022/04/10 06:14:41;;;;;;;4.05;2.90;;;;;;;8.93;62.49;100063.63;5081108;28;20089;-76
2022/04/10 06:17:07;;;;;;;5.18;3.20;;;;;;;9.07;62.92;100062.47;5087261;28;20522;-76
2022/04/10 06:19:33;;;;;;;3.83;3.08;;;;;;;9.34;62.95;100078.81;5096947;28;20032;-77
2022/04/10 06:21:59;;;;;;;5.20;2.92;;;;;;;9.58;62.14;100076.69;5083786;28;20055;-77
2022/04/10 06:24:27;;;;;;;4.43;2.97;;;;;;;9.72;60.11;100078.97;5094072;28;20055;-76
2022/04/10 06:26:56;;;;;;;3.75;2.95;;;;;;;9.95;59.55;100076.94;5092245;28;20024;-76
2022/04/10 06:29:22;;;;;;;5.22;2.80;;;;;;;10.02;57.64;100088.78;5092119;28;20059;-78
2022/04/10 06:31:48;;;;;;;3.55;2.45;;;;;;;9.94;58.38;100086.81;5076955;28;20122;-76
2022/04/10 06:34:13;;;;;;;3.13;2.70;;;;;;;10.03;58.92;100090.50;5080548;28;20200;-76
2022/04/10 06:36:40;;;;;;;5.53;2.33;;;;;;;10.24;59.05;100093.97;5095971;28;20532;-76
2022/04/10 06:39:06;;;;;;;4.20;2.38;;;;;;;10.52;57.44;100093.16;5078590;28;20507;-77
2022/04/10 06:41:32;;;;;;;2.83;2.53;;;;;;;10.62;56.38;100083.28;5079666;28;20035;-76
2022/04/10 06:43:57;;;;;;;3.65;2.65;;;;;;;10.82;56.54;100085.84;5095084;28;20024;-76
2022/04/10 06:46:23;;;;;;;2.88;2.08;;;;;;;10.98;56.32;100079.88;5093762;28;20534;-76
2022/04/10 06:48:49;;;;;;;3.35;2.60;;;;;;;11.17;55.95;100087.91;5078264;28;20463;-77
2022/04/10 06:51:16;;;;;;;4.18;2.75;;;;;;;11.35;55.42;100097.75;5091128;28;20387;-77
2022/04/10 06:53:42;;;;;;;3.05;2.50;;;;;;;11.47;54.67;100090.38;5076545;28;20047;-76
2022/04/10 06:56:08;;;;;;;3.88;3.00;;;;;;;11.61;54.24;100089.94;5077137;28;20112;-76
2022/04/10 06:58:34;;;;;;;3.72;2.88;;;;;;;11.59;54.28;100059.69;5079129;28;20020;-78
2022/04/10 07:00:59;;;;;;;3.30;2.35;;;;;;;11.93;53.18;100092.22;5097067;28;20152;-77
2022/04/10 07:03:25;;;;;;;3.75;2.47;;;;;;;12.01;52.40;100101.25;5075898;28;20027;-77
2022/04/10 07:05:50;;;;;;;3.63;2.80;;;;;;;12.09;53.22;100101.31;5077109;28;20094;-76
2022/04/10 07:08:16;;;;;;;4.82;3.10;;;;;;;12.25;52.98;100106.06;5099486;28;20051;-76
2022/04/10 07:10:41;;;;;;;4.15;2.80;;;;;;;12.50;51.78;100113.41;5097096;28;20087;-77
2022/04/10 07:13:07;;;;;;;4.60;2.60;;;;;;;12.52;51.31;100096.13;5090274;28;20023;-75
2022/04/10 07:15:32;;;;;;;4.97;2.63;;;;;;;12.64;51.04;100102.94;5079996;28;20023;-76
2022/04/10 07:17:58;;;;;;;3.90;2.80;;;;;;;12.66;51.23;100113.56;5083237;28;20032;-78
2022/04/10 07:20:27;;;;;;;4.25;2.95;;;;;;;12.71;51.18;100112.09;5081352;28;20031;-77
2022/04/10 07:25:37;;;;;;;3.45;2.30;;;;;;;12.64;50.23;100111.03;5092541;28;20507;-76
2022/04/10 07:28:03;;;;;;;4.35;2.60;;;;;;;12.59;51.13;100117.88;5094037;28;20028;-76
2022/04/10 07:30:29;;;;;;;4.15;2.63;;;;;;;12.62;50.66;100109.50;5090349;28;20024;-76
2022/04/10 07:32:56;;;;;;;3.22;2.47;;;;;;;12.72;50.41;100119.19;5094370;28;20440;-76
2022/04/10 07:35:22;;;;;;;5.43;3.30;;;;;;;12.86;51.11;100123.19;5093783;28;20067;-75
2022/04/10 07:37:49;;;;;;;3.38;2.40;;;;;;;12.93;50.47;100116.19;5087895;28;20522;-76
2022/04/10 07:40:15;;;;;;;3.28;2.58;;;;;;;12.94;49.41;100121.44;5091980;28;20404;-76
2022/04/10 07:42:45;;;;;;;3.42;2.58;;;;;;;12.75;49.67;100107.28;5075752;28;20483;-76
2022/04/10 07:47:25;;;;;;;4.75;2.78;;;;;;;12.69;50.01;100126.72;5079625;28;20062;-78
2022/04/10 07:47:59;;;;;;;4.20;2.50;;;;;;;12.64;49.65;100119.09;5093568;28;20047;-75
2022/04/10 07:50:25;;;;;;;6.60;2.70;;;;;;;12.49;50.23;100119.78;5101848;28;20040;-76
2022/04/10 07:52:51;;;;;;;4.20;2.65;;;;;;;12.20;50.73;100092.22;5091519;28;20040;-75
2022/04/10 07:55:20;;;;;;;3.90;2.90;;;;;;;12.20;50.44;100108.34;5078431;28;20028;-76
2022/04/10 07:57:46;;;;;;;6.05;2.78;;;;;;;12.31;51.58;100135.88;5097948;28;20019;-74
2022/04/10 08:00:12;;;;;;;3.95;2.78;;;;;;;12.25;51.76;100122.22;5096517;28;20027;-76
2022/04/10 08:02:39;;;;;;;3.88;2.70;;;;;;;12.47;50.64;100130.69;5097444;28;20031;-77
2022/04/10 08:05:04;;;;;;;4.57;3.05;;;;;;;12.60;51.63;100130.31;5095588;28;20737;-74
2022/04/10 08:07:30;;;;;;;5.72;3.28;;;;;;;12.84;51.44;100144.03;5076677;28;20079;-75
2022/04/10 08:09:55;;;;;;;4.03;2.80;;;;;;;13.12;50.53;100151.03;5093577;28;20049;-76
2022/04/10 08:12:21;;;;;;;5.43;3.22;;;;;;;13.45;49.86;100140.38;5091600;28;20111;-75
2022/04/10 08:14:48;;;;;;;5.35;3.10;;;;;;;14.00;49.01;100154.41;5089189;28;20105;-75
2022/04/10 08:17:14;;;;;;;3.85;2.97;;;;;;;14.47;46.28;100155.66;5073458;28;20514;-76
2022/04/10 08:19:39;;;;;;;6.57;3.03;;;;;;;14.90;44.00;100131.09;5095824;28;20052;-75
2022/04/10 08:22:05;;;;;;;3.10;2.42;;;;;;;14.90;44.18;100144.59;5100184;28;20556;-75
2022/04/10 08:24:30;;;;;;;3.92;2.75;;;;;;;15.17;44.44;100154.28;5085273;28;20373;-75
2022/04/10 08:26:56;;;;;;;5.43;2.97;;;;;;;16.11;43.36;100145.41;5097083;28;20069;-74
2022/04/10 08:29:21;;;;;;;4.35;2.75;;;;;;;17.42;41.15;100151.59;5070795;28;20043;-75
2022/04/10 08:31:47;;;;;;;4.28;2.97;;;;;;;18.48;38.93;100142.22;5083623;28;20459;-76
2022/04/10 08:34:13;;;;;;;4.20;2.75;;;;;;;19.56;35.42;100122.91;5088269;28;20027;-77
2022/04/10 08:36:39;;;;;;;3.75;2.72;;;;;;;19.76;35.57;100110.28;5098192;28;20734;-77
2022/04/10 08:39:05;;;;;;;5.13;2.67;;;;;;;20.79;33.62;100127.44;5082969;28;20043;-77
2022/04/10 08:41:33;;;;;;;3.70;2.67;;;;;;;21.60;32.59;100132.63;5086749;28;20047;-77
2022/04/10 08:44:03;;;;;;;6.82;2.53;;;;;;;22.28;31.43;100127.50;5097323;28;20083;-77
2022/04/10 08:46:30;;;;;;;3.08;2.15;;;;;;;22.94;29.82;100139.06;5080188;28;20420;-77
2022/04/10 08:48:57;;;;;;;3.38;2.17;;;;;;;23.41;28.62;100135.81;5092212;28;20032;-76
2022/04/10 08:51:24;;;;;;;3.15;2.10;;;;;;;23.89;28.08;100122.38;5091815;28;20421;-76
2022/04/10 08:53:55;;;;;;;3.35;2.40;;;;;;;24.51;27.57;100138.63;5095317;28;20024;-74
2022/04/10 08:56:22;;;;;;;3.13;1.92;;;;;;;24.87;26.05;100137.75;5097395;28;20031;-75
2022/04/10 08:58:49;;;;;;;3.30;2.10;;;;;;;25.18;25.06;100126.56;5087677;28;20028;-75
2022/04/10 09:01:19;;;;;;;3.20;2.08;;;;;;;25.45;25.14;100128.72;5097122;28;20070;-75
2022/04/10 09:03:46;;;;;;;2.47;2.10;;;;;;;25.60;24.77;100131.81;5082962;28;20514;-75
2022/04/10 09:06:12;;;;;;;2.80;2.10;;;;;;;25.44;25.03;100126.19;5078358;28;20031;-76
2022/04/10 09:08:38;;;;;;;3.35;2.17;;;;;;;25.11;27.00;100123.91;5082801;28;20101;-70
2022/04/10 09:11:05;;;;;;;5.47;2.00;;;;;;;24.47;26.52;100128.31;5088071;28;20028;-71
2022/04/10 09:13:59;;;;;;;3.38;1.80;;;;;;;23.87;27.28;100139.03;5095281;28;20123;-77
2022/04/10 09:16:25;;;;;;;5.70;2.58;;;;;;;23.00;26.86;100145.53;5070932;28;20131;-77
2022/04/10 09:19:07;;;;;;;2.13;1.85;;;;;;;22.21;28.62;100143.09;5091070;28;20031;-76
2022/04/10 09:21:41;;;;;;;5.72;2.20;;;;;;;21.25;27.87;100152.97;5099315;28;20032;-76
2022/04/10 09:24:07;;;;;;;3.88;2.13;;;;;;;20.39;28.42;100150.94;5083543;28;20077;-76
2022/04/10 09:26:45;;;;;;;2.45;1.83;;;;;;;19.41;30.35;100152.91;5083502;28;20105;-76
2022/04/10 09:29:12;;;;;;;2.95;2.30;;;;;;;18.69;32.47;100161.28;5077120;28;20463;-70
2022/04/10 09:31:37;;;;;;;4.85;2.60;;;;;;;18.01;33.58;100167.00;5095887;28;20055;-70
2022/04/10 09:34:20;;;;;;;4.53;2.85;;;;;;;17.38;34.57;100169.28;5079724;28;20048;-70
2022/04/10 09:36:48;;;;;;;3.40;2.80;;;;;;;16.91;34.75;100172.13;5091387;28;20032;-71
2022/04/10 09:39:15;;;;;;;4.18;2.58;;;;;;;16.49;35.46;100174.38;5082229;28;20039;-70
2022/04/10 09:41:42;;;;;;;4.65;2.58;;;;;;;16.16;36.37;100178.19;5084641;28;20043;-70
2022/04/10 09:44:17;;;;;;;4.22;2.67;;;;;;;15.99;37.20;100176.53;5083472;28;20043;-70
2022/04/10 09:46:43;;;;;;;3.80;2.50;;;;;;;15.80;37.06;100147.16;5078396;28;20031;-70
2022/04/10 09:49:17;;;;;;;3.38;2.55;;;;;;;15.80;37.11;100157.97;5083127;28;20044;-70
2022/04/10 09:52:02;;;;;;;;;;;;;;;15.65;36.74;100171.38;5086328;28;20043;-70
2022/04/10 09:54:41;;;;;;;4.65;2.40;;;;;;;15.53;36.98;100166.47;5092717;28;20246;-70
2022/04/10 09:57:20;;;;;;;3.38;2.22;;;;;;;15.48;37.24;100177.78;5087240;28;20024;-70
2022/04/10 09:59:50;;;;;;;3.25;2.03;;;;;;;15.39;37.32;100177.97;5094211;28;20040;-71
2022/04/10 10:02:21;;;;;;;3.42;2.08;;;;;;;15.24;37.45;100158.84;5084247;28;20388;-70
2022/04/10 10:04:48;;;;;;;5.53;2.50;;;;;;;15.19;36.90;100163.88;5095233;28;20404;-69
2022/04/10 10:07:20;;;;;;;3.78;2.25;;;;;;;15.25;37.04;100179.44;5091341;28;20087;-70
2022/04/10 10:09:48;;;;;;;4.13;2.35;;;;;;;15.21;37.43;100175.38;5093107;28;20523;-70
2022/04/10 10:12:15;;;;;;;2.72;2.13;;;;;;;15.23;36.96;100165.28;5088631;28;20032;-70
2022/04/10 10:14:41;;;;;;;3.25;2.33;;;;;;;15.14;36.18;100150.06;5093943;28;20024;-70
2022/04/10 10:17:08;;;;;;;3.97;2.25;;;;;;;15.15;37.23;100165.25;5083109;28;20040;-71
2022/04/10 10:19:39;;;;;;;4.05;1.92;;;;;;;15.23;37.03;100170.66;5079112;28;20032;-77
2022/04/10 10:22:08;;;;;;;3.45;2.10;;;;;;;15.25;36.76;100168.63;5092983;28;20066;-76
2022/04/10 10:24:36;;;;;;;4.07;2.05;;;;;;;15.16;35.38;100155.28;5093719;28;20502;-77
2022/04/10 10:27:29;;;;;;;4.25;1.73;;;;;;;15.15;35.64;100170.66;5080390;28;20032;-77
2022/04/10 10:30:32;;;;;;;2.13;1.52;;;;;;;15.18;34.85;100173.03;5083393;28;20064;-77
2022/04/10 10:33:16;;;;;;;2.97;1.92;;;;;;;15.04;36.13;100173.69;5091205;28;20031;-76
2022/04/10 10:35:52;;;;;;;2.80;1.83;;;;;;;14.95;35.72;100163.00;5095531;28;20028;-76
2022/04/10 10:38:23;;;;;;;3.08;1.75;;;;;;;14.89;35.83;100160.97;5094898;28;20055;-76
2022/04/10 10:40:53;;;;;;;2.80;2.03;;;;;;;14.85;36.60;100165.03;5076219;28;20085;-76
2022/04/10 10:43:25;;;;;;;2.85;2.03;;;;;;;14.85;36.00;100165.88;5091837;28;20027;-76
2022/04/10 10:45:54;;;;;;;4.22;1.90;;;;;;;14.82;36.30;100170.75;5084212;28;20020;-76
2022/04/10 10:48:32;;;;;;;3.53;2.13;;;;;;;14.81;35.17;100171.78;5083791;28;20076;-78
2022/04/10 10:51:22;;;;;;;3.85;2.05;;;;;;;14.62;36.79;100167.50;5098951;28;20393;-78
2022/04/10 10:53:52;;;;;;;4.53;2.08;;;;;;;14.56;37.21;100165.47;5077357;28;20039;-77
2022/04/10 10:56:17;;;;;;;4.70;1.83;;;;;;;14.61;37.49;100173.91;5091615;28;20500;-77
2022/04/10 10:58:43;;;;;;;4.80;2.28;;;;;;;14.60;36.78;100166.81;5095973;28;20032;-77
2022/04/10 11:01:15;;;;;;;2.58;2.10;;;;;;;14.63;37.21;100158.41;5093620;28;20028;-75
2022/04/10 11:04:03;;;;;;;4.60;2.63;;;;;;;14.72;37.42;100151.16;5090199;28;20531;-78
2022/04/10 11:06:43;;;;;;;3.55;1.90;;;;;;;14.85;36.46;100151.53;5092232;28;20389;-77
2022/04/10 11:09:28;;;;;;;3.83;2.30;;;;;;;14.92;36.59;100160.66;5092584;28;20054;-76
2022/04/10 11:11:56;;;;;;;3.80;2.30;;;;;;;14.87;36.08;100153.03;5096949;28;20020;-76
2022/04/10 11:14:33;;;;;;;4.28;2.20;;;;;;;14.71;36.59;100153.03;5087219;28;20046;-77
2022/04/10 11:17:21;;;;;;;4.05;2.38;;;;;;;14.68;37.12;100158.75;5091845;28;20097;-77
2022/04/10 11:19:48;;;;;;;4.75;2.20;;;;;;;14.51;36.66;100130.00;5110529;28;20047;-77
2022/04/10 11:22:37;;;;;;;6.45;3.05;;;;;;;14.92;36.00;100148.00;5110120;28;20475;-76
2022/04/10 11:25:10;;;;;;;3.75;2.20;;;;;;;14.46;37.60;100153.09;5096128;28;20035;-76
2022/04/10 11:27:54;;;;;;;3.47;2.28;;;;;;;14.48;37.28;100151.94;5092859;28;20028;-77
2022/04/10 11:30:20;;;;;;;;;;;;;;;14.32;38.34;100154.56;5085455;28;20035;-77
2022/04/10 11:32:49;;;;;;;2.35;1.95;;;;;;;14.26;38.19;100157.94;5079886;28;20438;-78
2022/04/10 11:35:20;;;;;;;2.60;1.65;;;;;;;14.21;36.96;100156.66;5095061;28;20043;-77